createdAt,value
2018-09-10T01:31:34.993Z,15.42
2018-09-10T01:31:35.566Z,15.49
2018-09-10T01:31:36.166Z,15.49
2018-09-10T01:31:36.767Z,15.48
2018-09-10T01:31:37.368Z,15.43
2018-09-10T01:31:37.966Z,15.52
2018-09-10T01:31:38.568Z,15.49
2018-09-10T01:31:39.164Z,15.48
2018-09-10T01:32:33.669Z,15.48
2018-09-10T01:32:34.241Z,15.49
2018-09-10T01:32:34.841Z,15.52
2018-09-10T01:32:35.443Z,15.45
2018-09-10T01:32:36.041Z,15.49
2018-09-10T01:32:36.643Z,15.52
2018-09-10T01:32:37.244Z,15.54
2018-09-10T01:32:37.842Z,15.49
2018-09-10T01:33:32.349Z,15.49
2018-09-10T01:33:32.917Z,15.59
2018-09-10T01:33:33.516Z,15.56
2018-09-10T01:33:34.117Z,15.54
2018-09-10T01:33:34.720Z,15.56
2018-09-10T01:33:35.316Z,15.59
2018-09-10T01:33:35.917Z,15.56
2018-09-10T01:33:36.515Z,15.48
2018-09-10T01:34:29.996Z,15.61
2018-09-10T01:34:30.577Z,15.64
2018-09-10T01:34:31.173Z,15.59
2018-09-10T01:34:31.768Z,15.59
2018-09-10T01:34:32.370Z,15.60
2018-09-10T01:34:32.969Z,15.63
2018-09-10T01:34:33.569Z,15.64
2018-09-10T01:34:34.175Z,15.60
2018-09-10T01:35:27.652Z,15.60
2018-09-10T01:35:28.226Z,15.68
2018-09-10T01:35:28.825Z,15.66
2018-09-10T01:35:29.424Z,15.68
2018-09-10T01:35:30.024Z,15.67
2018-09-10T01:35:30.623Z,15.66
2018-09-10T01:35:31.223Z,15.66
2018-09-10T01:35:31.824Z,15.66
2018-09-10T01:36:26.326Z,15.66
2018-09-10T01:36:26.899Z,15.64
2018-09-10T01:36:27.499Z,15.66
2018-09-10T01:36:28.099Z,15.64
2018-09-10T01:36:28.700Z,15.61
2018-09-10T01:36:29.299Z,15.70
2018-09-10T01:36:29.904Z,15.74
2018-09-10T01:36:30.499Z,15.66
2018-09-10T01:37:23.979Z,15.66
2018-09-10T01:37:24.551Z,15.67
2018-09-10T01:37:25.152Z,15.68
2018-09-10T01:37:25.752Z,15.63
2018-09-10T01:37:26.354Z,15.75
2018-09-10T01:37:26.951Z,15.68
2018-09-10T01:37:27.551Z,15.74
2018-09-10T01:37:28.151Z,15.74
2018-09-10T01:38:21.632Z,15.75
2018-09-10T01:38:22.204Z,15.78
2018-09-10T01:38:22.804Z,15.79
2018-09-10T01:38:23.403Z,15.75
2018-09-10T01:38:24.002Z,15.76
2018-09-10T01:38:24.603Z,15.76
2018-09-10T01:38:25.204Z,15.68
2018-09-10T01:38:25.805Z,15.74
2018-09-10T01:39:20.305Z,15.68
2018-09-10T01:39:20.882Z,15.72
2018-09-10T01:39:21.484Z,15.81
2018-09-10T01:39:22.076Z,15.75
2018-09-10T01:39:22.678Z,15.75
2018-09-10T01:39:23.276Z,15.84
2018-09-10T01:39:23.882Z,15.84
2018-09-10T01:39:24.477Z,15.81
2018-09-10T01:40:17.960Z,15.84
2018-09-10T01:40:18.531Z,15.84
2018-09-10T01:40:19.131Z,15.81
2018-09-10T01:40:19.731Z,15.78
2018-09-10T01:40:20.332Z,15.82
2018-09-10T01:40:20.930Z,15.86
2018-09-10T01:40:21.530Z,15.88
2018-09-10T01:40:22.131Z,15.84
2018-09-10T01:41:15.612Z,15.89
2018-09-10T01:41:16.184Z,15.93
2018-09-10T01:41:16.792Z,15.86
2018-09-10T01:41:17.390Z,15.85
2018-09-10T01:41:17.982Z,15.88
2018-09-10T01:41:18.583Z,15.88
2018-09-10T01:41:19.182Z,15.94
2018-09-10T01:41:19.781Z,15.92
2018-09-10T01:42:13.262Z,15.84
2018-09-10T01:42:13.836Z,15.92
2018-09-10T01:42:14.435Z,15.92
2018-09-10T01:42:15.035Z,15.86
2018-09-10T01:42:15.635Z,15.85
2018-09-10T01:42:16.235Z,15.92
2018-09-10T01:42:16.834Z,15.89
2018-09-10T01:42:17.436Z,15.89
2018-09-10T01:43:10.917Z,15.93
2018-09-10T01:43:11.487Z,15.92
2018-09-10T01:43:12.092Z,16.01
2018-09-10T01:43:12.687Z,15.94
2018-09-10T01:43:13.287Z,15.99
2018-09-10T01:43:13.887Z,15.97
2018-09-10T01:43:14.485Z,15.89
2018-09-10T01:43:15.088Z,15.96
2018-09-10T01:44:09.592Z,15.97
2018-09-10T01:44:10.161Z,15.99
2018-09-10T01:44:10.763Z,15.99
2018-09-10T01:44:11.363Z,16.00
2018-09-10T01:44:11.961Z,15.97
2018-09-10T01:44:12.562Z,15.97
2018-09-10T01:44:13.161Z,16.00
2018-09-10T01:44:13.761Z,15.99
2018-09-10T01:45:07.241Z,16.00
2018-09-10T01:45:07.817Z,16.00
2018-09-10T01:45:08.413Z,15.94
2018-09-10T01:45:09.015Z,15.96
2018-09-10T01:45:09.614Z,15.97
2018-09-10T01:45:10.214Z,16.04
2018-09-10T01:45:10.855Z,16.01
2018-09-10T01:45:11.414Z,15.99
2018-09-10T01:46:04.894Z,15.99
2018-09-10T01:46:05.469Z,16.07
2018-09-10T01:46:06.070Z,15.99
2018-09-10T01:46:06.666Z,15.97
2018-09-10T01:46:07.265Z,16.11
2018-09-10T01:46:07.866Z,15.97
2018-09-10T01:46:08.466Z,16.07
2018-09-10T01:46:09.067Z,16.16
2018-09-10T01:47:02.547Z,16.11
2018-09-10T01:47:03.122Z,16.09
2018-09-10T01:47:03.717Z,16.12
2018-09-10T01:47:04.320Z,16.14
2018-09-10T01:47:04.916Z,16.11
2018-09-10T01:47:05.516Z,16.09
2018-09-10T01:47:06.117Z,16.03
2018-09-10T01:47:06.716Z,16.12
2018-09-10T01:48:01.223Z,16.16
2018-09-10T01:48:01.793Z,16.12
2018-09-10T01:48:02.398Z,16.11
2018-09-10T01:48:02.995Z,16.15
2018-09-10T01:48:03.593Z,16.14
2018-09-10T01:48:04.195Z,16.12
2018-09-10T01:48:04.792Z,16.16
2018-09-10T01:48:05.392Z,16.09
2018-09-10T01:48:59.897Z,16.11
2018-09-10T01:49:00.469Z,16.20
2018-09-10T01:49:01.068Z,16.23
2018-09-10T01:49:01.669Z,16.12
2018-09-10T01:49:02.268Z,16.16
2018-09-10T01:49:02.868Z,16.20
2018-09-10T01:49:03.468Z,16.16
2018-09-10T01:49:04.068Z,16.18
2018-09-10T01:49:58.573Z,16.22
2018-09-10T01:49:59.145Z,16.22
2018-09-10T01:49:59.744Z,16.25
2018-09-10T01:50:00.347Z,16.25
2018-09-10T01:50:00.944Z,16.26
2018-09-10T01:50:01.544Z,16.25
2018-09-10T01:50:02.143Z,16.25
2018-09-10T01:50:02.744Z,16.26
2018-09-10T01:50:56.225Z,16.25
2018-09-10T01:50:56.799Z,16.26
2018-09-10T01:50:57.398Z,16.27
2018-09-10T01:50:57.999Z,16.30
2018-09-10T01:50:58.601Z,16.26
2018-09-10T01:50:59.197Z,16.27
2018-09-10T01:50:59.797Z,16.31
2018-09-10T01:51:00.398Z,16.33
2018-09-10T01:51:53.883Z,16.31
2018-09-10T01:51:54.450Z,16.26
2018-09-10T01:51:55.050Z,16.23
2018-09-10T01:51:55.658Z,16.34
2018-09-10T01:51:56.252Z,16.37
2018-09-10T01:51:56.850Z,16.23
2018-09-10T01:51:57.450Z,16.38
2018-09-10T01:51:58.050Z,16.23
2018-09-10T01:52:51.528Z,16.23
2018-09-10T01:52:52.106Z,16.37
2018-09-10T01:52:52.701Z,16.31
2018-09-10T01:52:53.302Z,16.27
2018-09-10T01:52:53.901Z,16.34
2018-09-10T01:52:54.504Z,16.37
2018-09-10T01:52:55.101Z,16.34
2018-09-10T01:52:55.701Z,16.38
2018-09-10T01:53:49.179Z,16.30
2018-09-10T01:53:49.752Z,16.34
2018-09-10T01:53:50.352Z,16.33
2018-09-10T01:53:50.951Z,16.33
2018-09-10T01:53:51.551Z,16.33
2018-09-10T01:53:52.153Z,16.42
2018-09-10T01:53:52.752Z,16.34
2018-09-10T01:53:53.352Z,16.38
2018-09-10T01:54:46.836Z,16.35
2018-09-10T01:54:47.406Z,16.42
2018-09-10T01:54:48.005Z,16.40
2018-09-10T01:54:48.605Z,16.37
2018-09-10T01:54:49.205Z,16.40
2018-09-10T01:54:49.804Z,16.41
2018-09-10T01:54:50.404Z,16.34
2018-09-10T01:54:51.005Z,16.41
2018-09-10T01:55:45.508Z,16.37
2018-09-10T01:55:46.080Z,16.37
2018-09-10T01:55:46.679Z,16.40
2018-09-10T01:55:47.279Z,16.49
2018-09-10T01:55:47.879Z,16.49
2018-09-10T01:55:48.480Z,16.37
2018-09-10T01:55:49.080Z,16.45
2018-09-10T01:55:49.679Z,16.38
2018-09-10T01:56:44.183Z,16.40
2018-09-10T01:56:44.755Z,16.48
2018-09-10T01:56:45.354Z,16.45
2018-09-10T01:56:45.955Z,16.44
2018-09-10T01:56:46.555Z,16.42
2018-09-10T01:56:47.155Z,16.45
2018-09-10T01:56:47.755Z,16.48
2018-09-10T01:56:48.358Z,16.48
2018-09-10T01:57:42.859Z,16.52
2018-09-10T01:57:43.431Z,16.44
2018-09-10T01:57:44.033Z,16.50
2018-09-10T01:57:44.633Z,16.49
2018-09-10T01:57:45.233Z,16.52
2018-09-10T01:57:45.832Z,16.48
2018-09-10T01:57:46.430Z,16.48
2018-09-10T01:57:47.032Z,16.49
2018-09-10T01:58:40.511Z,16.44
2018-09-10T01:58:41.084Z,16.53
2018-09-10T01:58:41.683Z,16.49
2018-09-10T01:58:42.285Z,16.50
2018-09-10T01:58:42.885Z,16.50
2018-09-10T01:58:43.484Z,16.49
2018-09-10T01:58:44.083Z,16.48
2018-09-10T01:58:44.683Z,16.53
2018-09-10T01:59:38.165Z,16.41
2018-09-10T01:59:38.734Z,16.45
2018-09-10T01:59:39.335Z,16.48
2018-09-10T01:59:39.937Z,16.48
2018-09-10T01:59:40.536Z,16.48
2018-09-10T01:59:41.135Z,16.49
2018-09-10T01:59:41.735Z,16.48
2018-09-10T01:59:42.335Z,16.45
2018-09-10T02:00:36.842Z,16.48
2018-09-10T02:00:37.410Z,16.48
2018-09-10T02:00:38.013Z,16.50
2018-09-10T02:00:38.612Z,16.55
2018-09-10T02:00:39.212Z,16.50
2018-09-10T02:00:39.809Z,16.48
2018-09-10T02:00:40.410Z,16.49
2018-09-10T02:00:41.010Z,16.49
2018-09-10T02:01:35.560Z,16.48
2018-09-10T02:01:36.086Z,16.49
2018-09-10T02:01:36.684Z,16.53
2018-09-10T02:01:37.286Z,16.53
2018-09-10T02:01:37.887Z,16.49
2018-09-10T02:01:38.486Z,16.49
2018-09-10T02:01:39.085Z,16.48
2018-09-10T02:01:39.686Z,16.49
2018-09-10T02:02:34.189Z,16.45
2018-09-10T02:02:34.761Z,16.48
2018-09-10T02:02:35.363Z,16.44
2018-09-10T02:02:35.963Z,16.45
2018-09-10T02:02:36.563Z,16.48
2018-09-10T02:02:37.161Z,16.50
2018-09-10T02:02:37.761Z,16.55
2018-09-10T02:02:38.360Z,16.50
2018-09-10T02:03:31.842Z,16.44
2018-09-10T02:03:32.417Z,16.45
2018-09-10T02:03:33.021Z,16.45
2018-09-10T02:03:33.615Z,16.48
2018-09-10T02:03:34.217Z,16.45
2018-09-10T02:03:34.814Z,16.48
2018-09-10T02:03:35.413Z,16.48
2018-09-10T02:03:36.013Z,16.48
2018-09-10T02:04:29.494Z,16.49
2018-09-10T02:04:30.067Z,16.49
2018-09-10T02:04:30.666Z,16.45
2018-09-10T02:04:31.268Z,16.52
2018-09-10T02:04:31.868Z,16.49
2018-09-10T02:04:32.466Z,16.50
2018-09-10T02:04:33.066Z,16.52
2018-09-10T02:04:33.665Z,16.56
2018-09-10T02:05:27.145Z,16.49
2018-09-10T02:05:27.718Z,16.52
2018-09-10T02:05:28.317Z,16.49
2018-09-10T02:05:28.918Z,16.48
2018-09-10T02:05:29.519Z,16.49
2018-09-10T02:05:30.120Z,16.49
2018-09-10T02:05:30.718Z,16.50
2018-09-10T02:05:31.319Z,16.48
2018-09-10T02:06:24.796Z,16.48
2018-09-10T02:06:25.370Z,16.48
2018-09-10T02:06:25.970Z,16.48
2018-09-10T02:06:26.570Z,16.50
2018-09-10T02:06:27.173Z,16.50
2018-09-10T02:06:27.772Z,16.50
2018-09-10T02:06:28.369Z,16.53
2018-09-10T02:06:28.970Z,16.50
2018-09-10T02:07:22.448Z,16.55
2018-09-10T02:07:23.021Z,16.52
2018-09-10T02:07:23.621Z,16.53
2018-09-10T02:07:24.221Z,16.59
2018-09-10T02:07:24.822Z,16.49
2018-09-10T02:07:25.421Z,16.56
2018-09-10T02:07:26.019Z,16.56
2018-09-10T02:07:26.621Z,16.53
2018-09-10T02:08:20.100Z,16.59
2018-09-10T02:08:20.673Z,16.53
2018-09-10T02:08:21.273Z,16.52
2018-09-10T02:08:21.873Z,16.58
2018-09-10T02:08:22.474Z,16.55
2018-09-10T02:08:23.073Z,16.58
2018-09-10T02:08:23.673Z,16.55
2018-09-10T02:08:24.273Z,16.58
2018-09-10T02:09:18.776Z,16.50
2018-09-10T02:09:19.350Z,16.53
2018-09-10T02:09:19.948Z,16.55
2018-09-10T02:09:20.548Z,16.62
2018-09-10T02:09:21.151Z,16.52
2018-09-10T02:09:21.746Z,16.52
2018-09-10T02:09:22.347Z,16.60
2018-09-10T02:09:22.946Z,16.56
2018-09-10T02:10:16.427Z,16.62
2018-09-10T02:10:17.002Z,16.59
2018-09-10T02:10:17.600Z,16.56
2018-09-10T02:10:18.202Z,16.62
2018-09-10T02:10:18.802Z,16.62
2018-09-10T02:10:19.400Z,16.60
2018-09-10T02:10:20.001Z,16.63
2018-09-10T02:10:20.600Z,16.60
2018-09-10T02:11:15.001Z,16.62
2018-09-10T02:11:15.573Z,16.60
2018-09-10T02:11:16.175Z,16.67
2018-09-10T02:11:16.774Z,16.65
2018-09-10T02:11:17.374Z,16.62
2018-09-10T02:11:17.973Z,16.63
2018-09-10T02:11:18.574Z,16.60
2018-09-10T02:11:19.174Z,16.62
2018-09-10T02:12:12.651Z,16.67
2018-09-10T02:12:13.228Z,16.68
2018-09-10T02:12:13.826Z,16.70
2018-09-10T02:12:14.424Z,16.68
2018-09-10T02:12:15.026Z,16.70
2018-09-10T02:12:15.625Z,16.73
2018-09-10T02:12:16.226Z,16.70
2018-09-10T02:12:16.825Z,16.74
2018-09-10T02:13:11.331Z,16.65
2018-09-10T02:13:11.899Z,16.75
2018-09-10T02:13:12.500Z,16.77
2018-09-10T02:13:13.101Z,16.73
2018-09-10T02:13:13.699Z,16.75
2018-09-10T02:13:14.298Z,16.75
2018-09-10T02:13:14.898Z,16.75
2018-09-10T02:13:15.498Z,16.80
2018-09-10T02:14:10.004Z,16.75
2018-09-10T02:14:10.577Z,16.86
2018-09-10T02:14:11.177Z,16.85
2018-09-10T02:14:11.778Z,16.73
2018-09-10T02:14:12.377Z,16.77
2018-09-10T02:14:12.974Z,16.80
2018-09-10T02:14:13.576Z,16.71
2018-09-10T02:14:14.176Z,16.80
2018-09-10T02:15:07.655Z,16.78
2018-09-10T02:15:08.232Z,16.74
2018-09-10T02:15:08.829Z,16.85
2018-09-10T02:15:09.428Z,16.88
2018-09-10T02:15:10.031Z,16.73
2018-09-10T02:15:10.629Z,16.89
2018-09-10T02:15:11.228Z,16.77
2018-09-10T02:15:11.829Z,16.90
2018-09-10T02:16:06.332Z,16.90
2018-09-10T02:16:06.903Z,16.85
2018-09-10T02:16:07.502Z,16.80
2018-09-10T02:16:08.110Z,16.88
2018-09-10T02:16:08.705Z,16.83
2018-09-10T02:16:09.345Z,16.89
2018-09-10T02:16:09.904Z,16.88
2018-09-10T02:16:10.503Z,16.88
2018-09-10T02:17:05.029Z,16.86
2018-09-10T02:17:05.591Z,16.89
2018-09-10T02:17:06.228Z,16.90
2018-09-10T02:17:06.824Z,16.96
2018-09-10T02:17:07.440Z,16.92
2018-09-10T02:17:08.020Z,16.90
2018-09-10T02:17:08.642Z,16.93
2018-09-10T02:17:09.223Z,16.90
2018-09-10T02:18:03.685Z,16.96
2018-09-10T02:18:04.255Z,16.98
2018-09-10T02:18:04.856Z,16.99
2018-09-10T02:18:05.457Z,16.98
2018-09-10T02:18:06.058Z,16.98
2018-09-10T02:18:06.654Z,16.95
2018-09-10T02:18:07.254Z,16.98
2018-09-10T02:18:07.856Z,16.95
2018-09-10T02:19:01.334Z,17.00
2018-09-10T02:19:01.907Z,16.99
2018-09-10T02:19:02.508Z,16.96
2018-09-10T02:19:03.108Z,17.03
2018-09-10T02:19:03.708Z,17.03
2018-09-10T02:19:04.307Z,17.04
2018-09-10T02:19:04.909Z,17.00
2018-09-10T02:19:05.509Z,17.07
2018-09-10T02:20:00.011Z,17.03
2018-09-10T02:20:00.584Z,17.08
2018-09-10T02:20:01.182Z,16.95
2018-09-10T02:20:01.786Z,16.99
2018-09-10T02:20:02.384Z,17.03
2018-09-10T02:20:02.982Z,16.99
2018-09-10T02:20:03.581Z,17.03
2018-09-10T02:20:04.182Z,16.98
2018-09-10T02:20:57.664Z,16.99
2018-09-10T02:20:58.235Z,17.10
2018-09-10T02:20:58.836Z,17.07
2018-09-10T02:20:59.435Z,17.00
2018-09-10T02:21:00.036Z,17.07
2018-09-10T02:21:00.634Z,17.03
2018-09-10T02:21:01.236Z,17.06
2018-09-10T02:21:01.835Z,17.00
2018-09-10T02:21:56.338Z,17.03
2018-09-10T02:21:56.911Z,17.07
2018-09-10T02:21:57.510Z,17.00
2018-09-10T02:21:58.111Z,17.00
2018-09-10T02:21:58.711Z,16.98
2018-09-10T02:21:59.311Z,17.04
2018-09-10T02:21:59.912Z,17.03
2018-09-10T02:22:00.510Z,17.08
2018-09-10T02:22:55.013Z,17.08
2018-09-10T02:22:55.586Z,17.07
2018-09-10T02:22:56.188Z,17.07
2018-09-10T02:22:56.785Z,17.07
2018-09-10T02:22:57.387Z,17.07
2018-09-10T02:22:57.984Z,16.99
2018-09-10T02:22:58.590Z,17.10
2018-09-10T02:22:59.185Z,17.06
2018-09-10T02:23:52.665Z,17.13
2018-09-10T02:23:53.238Z,17.10
2018-09-10T02:23:53.839Z,17.13
2018-09-10T02:23:54.438Z,17.08
2018-09-10T02:23:55.041Z,17.11
2018-09-10T02:23:55.638Z,17.11
2018-09-10T02:23:56.238Z,17.11
2018-09-10T02:23:56.838Z,17.11
2018-09-10T02:24:50.324Z,17.08
2018-09-10T02:24:50.889Z,17.06
2018-09-10T02:24:51.489Z,17.15
2018-09-10T02:24:52.089Z,17.07
2018-09-10T02:24:52.690Z,17.11
2018-09-10T02:24:53.289Z,17.06
2018-09-10T02:24:53.888Z,17.18
2018-09-10T02:24:54.489Z,17.13
2018-09-10T02:25:48.993Z,17.15
2018-09-10T02:25:49.565Z,17.13
2018-09-10T02:25:50.165Z,17.07
2018-09-10T02:25:50.768Z,17.13
2018-09-10T02:25:51.365Z,17.10
2018-09-10T02:25:51.964Z,17.08
2018-09-10T02:25:52.567Z,17.13
2018-09-10T02:25:53.166Z,17.07
2018-09-10T02:26:47.669Z,17.20
2018-09-10T02:26:48.240Z,17.25
2018-09-10T02:26:48.841Z,17.17
2018-09-10T02:26:49.441Z,17.26
2018-09-10T02:26:50.044Z,17.23
2018-09-10T02:26:50.638Z,17.18
2018-09-10T02:26:51.240Z,17.23
2018-09-10T02:26:51.840Z,17.22
2018-09-10T02:27:46.363Z,17.22
2018-09-10T02:27:46.935Z,17.30
2018-09-10T02:27:47.550Z,17.33
2018-09-10T02:27:48.140Z,17.25
2018-09-10T02:27:48.767Z,17.26
2018-09-10T02:27:49.365Z,17.22
2018-09-10T02:27:49.993Z,17.20
2018-09-10T02:27:50.578Z,17.23
2018-09-10T02:28:43.999Z,17.23
2018-09-10T02:28:44.567Z,17.29
2018-09-10T02:28:45.171Z,17.30
2018-09-10T02:28:45.767Z,17.33
2018-09-10T02:28:46.369Z,17.29
2018-09-10T02:28:46.966Z,17.30
2018-09-10T02:28:47.567Z,17.23
2018-09-10T02:28:48.166Z,17.28
2018-09-10T02:29:41.648Z,17.30
2018-09-10T02:29:42.223Z,17.32
2018-09-10T02:29:42.822Z,17.32
2018-09-10T02:29:43.421Z,17.28
2018-09-10T02:29:44.022Z,17.29
2018-09-10T02:29:44.622Z,17.32
2018-09-10T02:29:45.221Z,17.28
2018-09-10T02:29:45.822Z,17.38
2018-09-10T02:30:39.299Z,17.29
2018-09-10T02:30:39.872Z,17.35
2018-09-10T02:30:40.473Z,17.32
2018-09-10T02:30:41.073Z,17.43
2018-09-10T02:30:41.676Z,17.30
2018-09-10T02:30:42.276Z,17.30
2018-09-10T02:30:42.872Z,17.29
2018-09-10T02:30:43.472Z,17.35
2018-09-10T02:31:36.956Z,17.38
2018-09-10T02:31:37.526Z,17.29
2018-09-10T02:31:38.125Z,17.38
2018-09-10T02:31:38.726Z,17.29
2018-09-10T02:31:39.325Z,17.33
2018-09-10T02:31:39.925Z,17.26
2018-09-10T02:31:40.526Z,17.41
2018-09-10T02:31:41.124Z,17.41
2018-09-10T02:32:34.603Z,17.38
2018-09-10T02:32:35.178Z,17.33
2018-09-10T02:32:35.777Z,17.35
2018-09-10T02:32:36.378Z,17.30
2018-09-10T02:32:36.979Z,17.30
2018-09-10T02:32:37.578Z,17.40
2018-09-10T02:32:38.177Z,17.41
2018-09-10T02:32:38.784Z,17.28
2018-09-10T02:33:33.282Z,17.25
2018-09-10T02:33:33.849Z,17.38
2018-09-10T02:33:34.449Z,17.38
2018-09-10T02:33:35.049Z,17.29
2018-09-10T02:33:35.648Z,17.30
2018-09-10T02:33:36.249Z,17.32
2018-09-10T02:33:36.849Z,17.36
2018-09-10T02:33:37.448Z,17.30
2018-09-10T02:34:31.954Z,17.28
2018-09-10T02:34:32.527Z,17.29
2018-09-10T02:34:33.128Z,17.38
2018-09-10T02:34:33.733Z,17.33
2018-09-10T02:34:34.329Z,17.28
2018-09-10T02:34:34.933Z,17.35
2018-09-10T02:34:35.528Z,17.30
2018-09-10T02:34:36.126Z,17.36
2018-09-10T02:35:30.630Z,17.29
2018-09-10T02:35:31.203Z,17.29
2018-09-10T02:35:31.805Z,17.28
2018-09-10T02:35:32.405Z,17.29
2018-09-10T02:35:33.003Z,17.30
2018-09-10T02:35:33.603Z,17.35
2018-09-10T02:35:34.202Z,17.28
2018-09-10T02:35:34.802Z,17.30
2018-09-10T02:36:28.282Z,17.23
2018-09-10T02:36:28.854Z,17.32
2018-09-10T02:36:29.454Z,17.26
2018-09-10T02:36:30.055Z,17.30
2018-09-10T02:36:30.656Z,17.26
2018-09-10T02:36:31.254Z,17.29
2018-09-10T02:36:31.857Z,17.26
2018-09-10T02:36:32.454Z,17.35
2018-09-10T02:37:26.958Z,17.29
2018-09-10T02:37:27.530Z,17.35
2018-09-10T02:37:28.131Z,17.29
2018-09-10T02:37:28.731Z,17.40
2018-09-10T02:37:29.332Z,17.29
2018-09-10T02:37:29.932Z,17.28
2018-09-10T02:37:30.532Z,17.32
2018-09-10T02:37:31.129Z,17.29
2018-09-10T02:38:24.694Z,17.29
2018-09-10T02:38:25.244Z,17.40
2018-09-10T02:38:25.834Z,17.25
2018-09-10T02:38:26.392Z,17.28
2018-09-10T02:38:27.036Z,17.29
2018-09-10T02:38:27.617Z,17.30
2018-09-10T02:38:28.193Z,17.36
2018-09-10T02:38:28.830Z,17.35
2018-09-10T02:39:22.262Z,17.29
2018-09-10T02:39:22.835Z,17.30
2018-09-10T02:39:23.435Z,17.33
2018-09-10T02:39:24.035Z,17.30
2018-09-10T02:39:24.634Z,17.38
2018-09-10T02:39:25.235Z,17.29
2018-09-10T02:39:25.835Z,17.30
2018-09-10T02:39:26.434Z,17.33
2018-09-10T02:40:19.914Z,17.29
2018-09-10T02:40:20.489Z,17.30
2018-09-10T02:40:21.087Z,17.40
2018-09-10T02:40:21.686Z,17.30
2018-09-10T02:40:22.330Z,17.36
2018-09-10T02:40:22.888Z,17.36
2018-09-10T02:40:23.487Z,17.29
2018-09-10T02:40:24.086Z,17.29
2018-09-10T02:41:18.588Z,17.26
2018-09-10T02:41:19.163Z,17.29
2018-09-10T02:41:19.761Z,17.30
2018-09-10T02:41:20.364Z,17.29
2018-09-10T02:41:20.961Z,17.32
2018-09-10T02:41:21.561Z,17.33
2018-09-10T02:41:22.159Z,17.33
2018-09-10T02:41:22.762Z,17.32
2018-09-10T02:42:16.241Z,17.25
2018-09-10T02:42:16.815Z,17.28
2018-09-10T02:42:17.413Z,17.28
2018-09-10T02:42:18.014Z,17.33
2018-09-10T02:42:18.614Z,17.28
2018-09-10T02:42:19.213Z,17.33
2018-09-10T02:42:19.814Z,17.29
2018-09-10T02:42:20.413Z,17.32
2018-09-10T02:43:13.893Z,17.33
2018-09-10T02:43:14.464Z,17.30
2018-09-10T02:43:15.066Z,17.38
2018-09-10T02:43:15.667Z,17.33
2018-09-10T02:43:16.264Z,17.28
2018-09-10T02:43:16.866Z,17.38
2018-09-10T02:43:17.466Z,17.30
2018-09-10T02:43:18.065Z,17.30
2018-09-10T02:44:11.543Z,17.33
2018-09-10T02:44:12.117Z,17.28
2018-09-10T02:44:12.717Z,17.35
2018-09-10T02:44:13.317Z,17.41
2018-09-10T02:44:13.917Z,17.36
2018-09-10T02:44:14.518Z,17.36
2018-09-10T02:44:15.116Z,17.33
2018-09-10T02:44:15.718Z,17.30
2018-09-10T02:45:10.219Z,17.36
2018-09-10T02:45:10.793Z,17.36
2018-09-10T02:45:11.391Z,17.29
2018-09-10T02:45:11.994Z,17.33
2018-09-10T02:45:12.592Z,17.35
2018-09-10T02:45:13.191Z,17.38
2018-09-10T02:45:13.791Z,17.30
2018-09-10T02:45:14.392Z,17.36
2018-09-10T02:46:08.896Z,17.29
2018-09-10T02:46:09.467Z,17.30
2018-09-10T02:46:10.069Z,17.46
2018-09-10T02:46:10.667Z,17.35
2018-09-10T02:46:11.269Z,17.43
2018-09-10T02:46:11.868Z,17.41
2018-09-10T02:46:12.469Z,17.44
2018-09-10T02:46:13.067Z,17.41
2018-09-10T02:47:07.572Z,17.46
2018-09-10T02:47:08.147Z,17.44
2018-09-10T02:47:08.745Z,17.43
2018-09-10T02:47:09.345Z,17.41
2018-09-10T02:47:09.949Z,17.48
2018-09-10T02:47:10.541Z,17.43
2018-09-10T02:47:11.140Z,17.43
2018-09-10T02:47:11.742Z,17.43
2018-09-10T02:48:05.223Z,17.46
2018-09-10T02:48:05.796Z,17.50
2018-09-10T02:48:06.397Z,17.48
2018-09-10T02:48:06.995Z,17.43
2018-09-10T02:48:07.597Z,17.47
2018-09-10T02:48:08.204Z,17.48
2018-09-10T02:48:08.796Z,17.48
2018-09-10T02:48:09.397Z,17.43
2018-09-10T02:49:03.899Z,17.54
2018-09-10T02:49:04.471Z,17.43
2018-09-10T02:49:05.071Z,17.43
2018-09-10T02:49:05.669Z,17.50
2018-09-10T02:49:06.271Z,17.41
2018-09-10T02:49:06.870Z,17.47
2018-09-10T02:49:07.470Z,17.50
2018-09-10T02:49:08.071Z,17.44
2018-09-10T02:50:01.550Z,17.50
2018-09-10T02:50:02.124Z,17.51
2018-09-10T02:50:02.727Z,17.44
2018-09-10T02:50:03.324Z,17.50
2018-09-10T02:50:03.923Z,17.53
2018-09-10T02:50:04.521Z,17.47
2018-09-10T02:50:05.123Z,17.46
2018-09-10T02:50:05.724Z,17.38
2018-09-10T02:51:00.226Z,17.47
2018-09-10T02:51:00.798Z,17.48
2018-09-10T02:51:01.401Z,17.47
2018-09-10T02:51:02.000Z,17.46
2018-09-10T02:51:02.598Z,17.43
2018-09-10T02:51:03.197Z,17.47
2018-09-10T02:51:03.797Z,17.47
2018-09-10T02:51:04.398Z,17.47
2018-09-10T02:51:57.980Z,17.47
2018-09-10T02:51:58.554Z,17.47
2018-09-10T02:51:59.154Z,17.46
2018-09-10T02:51:59.753Z,17.50
2018-09-10T02:52:00.355Z,17.41
2018-09-10T02:52:00.954Z,17.43
2018-09-10T02:52:01.556Z,17.40
2018-09-10T02:52:02.155Z,17.43
2018-09-10T02:52:56.656Z,17.51
2018-09-10T02:52:57.229Z,17.51
2018-09-10T02:52:57.827Z,17.41
2018-09-10T02:52:58.428Z,17.51
2018-09-10T02:52:59.029Z,17.46
2018-09-10T02:52:59.628Z,17.40
2018-09-10T02:53:00.233Z,17.44
2018-09-10T02:53:00.827Z,17.50
2018-09-10T02:53:55.331Z,17.53
2018-09-10T02:53:55.905Z,17.46
2018-09-10T02:53:56.503Z,17.41
2018-09-10T02:53:57.104Z,17.44
2018-09-10T02:53:57.704Z,17.46
2018-09-10T02:53:58.304Z,17.50
2018-09-10T02:53:58.902Z,17.47
2018-09-10T02:53:59.504Z,17.47
2018-09-10T02:54:52.982Z,17.44
2018-09-10T02:54:53.557Z,17.50
2018-09-10T02:54:54.166Z,17.47
2018-09-10T02:54:54.753Z,17.46
2018-09-10T02:54:55.364Z,17.44
2018-09-10T02:54:55.971Z,17.46
2018-09-10T02:54:56.560Z,17.38
2018-09-10T02:54:57.215Z,17.48
2018-09-10T02:55:50.636Z,17.51
2018-09-10T02:55:51.208Z,17.50
2018-09-10T02:55:51.809Z,17.44
2018-09-10T02:55:52.408Z,17.53
2018-09-10T02:55:53.007Z,17.54
2018-09-10T02:55:53.612Z,17.44
2018-09-10T02:55:54.207Z,17.55
2018-09-10T02:55:54.808Z,17.54
2018-09-10T02:56:49.311Z,17.47
2018-09-10T02:56:49.883Z,17.44
2018-09-10T02:56:50.483Z,17.40
2018-09-10T02:56:51.084Z,17.47
2018-09-10T02:56:51.683Z,17.51
2018-09-10T02:56:52.281Z,17.43
2018-09-10T02:56:52.882Z,17.40
2018-09-10T02:56:53.481Z,17.46
2018-09-10T02:57:46.963Z,17.47
2018-09-10T02:57:47.535Z,17.47
2018-09-10T02:57:48.134Z,17.47
2018-09-10T02:57:48.738Z,17.51
2018-09-10T02:57:49.336Z,17.47
2018-09-10T02:57:49.937Z,17.48
2018-09-10T02:57:50.534Z,17.46
2018-09-10T02:57:51.136Z,17.54
2018-09-10T02:58:45.638Z,17.47
2018-09-10T02:58:46.213Z,17.55
2018-09-10T02:58:46.809Z,17.51
2018-09-10T02:58:47.414Z,17.46
2018-09-10T02:58:48.011Z,17.55
2018-09-10T02:58:48.608Z,17.55
2018-09-10T02:58:49.207Z,17.48
2018-09-10T02:58:49.807Z,17.46
2018-09-10T02:59:44.312Z,17.51
2018-09-10T02:59:44.886Z,17.48
2018-09-10T02:59:45.485Z,17.57
2018-09-10T02:59:46.086Z,17.50
2018-09-10T02:59:46.685Z,17.48
2018-09-10T02:59:47.285Z,17.54
2018-09-10T02:59:47.885Z,17.44
2018-09-10T02:59:48.485Z,17.48
2018-09-10T03:00:41.968Z,17.47
2018-09-10T03:00:42.538Z,17.48
2018-09-10T03:00:43.138Z,17.53
2018-09-10T03:00:43.739Z,17.51
2018-09-10T03:00:44.342Z,17.48
2018-09-10T03:00:44.938Z,17.55
2018-09-10T03:00:45.539Z,17.53
2018-09-10T03:00:46.137Z,17.53
2018-09-10T03:01:40.641Z,17.54
2018-09-10T03:01:41.214Z,17.55
2018-09-10T03:01:41.814Z,17.59
2018-09-10T03:01:42.414Z,17.57
2018-09-10T03:01:43.014Z,17.62
2018-09-10T03:01:43.614Z,17.54
2018-09-10T03:01:44.213Z,17.54
2018-09-10T03:01:44.814Z,17.51
2018-09-10T03:02:38.295Z,17.62
2018-09-10T03:02:38.866Z,17.62
2018-09-10T03:02:39.465Z,17.59
2018-09-10T03:02:40.066Z,17.59
2018-09-10T03:02:40.668Z,17.63
2018-09-10T03:02:41.265Z,17.55
2018-09-10T03:02:41.865Z,17.55
2018-09-10T03:02:42.467Z,17.57
2018-09-10T03:03:35.947Z,17.57
2018-09-10T03:03:36.518Z,17.57
2018-09-10T03:03:37.119Z,17.62
2018-09-10T03:03:37.717Z,17.57
2018-09-10T03:03:38.318Z,17.59
2018-09-10T03:03:38.919Z,17.59
2018-09-10T03:03:39.519Z,17.62
2018-09-10T03:03:40.119Z,17.66
2018-09-10T03:04:33.596Z,17.66
2018-09-10T03:04:34.168Z,17.62
2018-09-10T03:04:34.769Z,17.62
2018-09-10T03:04:35.369Z,17.59
2018-09-10T03:04:35.973Z,17.66